sensor_id;sensor_type;location;lat;lon;timestamp;P1;durP1;ratioP1;P2;durP2;ratioP2
67747;SDS011;54543;50.712;6.070;2022-12-08T00:01:38;16.42;;;8.95;;
67747;SDS011;54543;50.712;6.070;2022-12-08T00:04:04;13.50;;;7.57;;
67747;SDS011;54543;50.712;6.070;2022-12-08T00:06:30;17.23;;;9.48;;
67747;SDS011;54543;50.712;6.070;2022-12-08T00:09:17;14.55;;;8.20;;
67747;SDS011;54543;50.712;6.070;2022-12-08T00:11:48;15.95;;;7.57;;
67747;SDS011;54543;50.712;6.070;2022-12-08T00:14:14;13.90;;;7.80;;
67747;SDS011;54543;50.712;6.070;2022-12-08T00:16:40;14.85;;;8.07;;
67747;SDS011;54543;50.712;6.070;2022-12-08T00:19:05;13.68;;;8.35;;
67747;SDS011;54543;50.712;6.070;2022-12-08T00:21:31;12.70;;;7.18;;
67747;SDS011;54543;50.712;6.070;2022-12-08T00:23:56;15.60;;;8.25;;
67747;SDS011;54543;50.712;6.070;2022-12-08T00:26:22;17.42;;;8.95;;
67747;SDS011;54543;50.712;6.070;2022-12-08T00:28:48;11.85;;;7.03;;
67747;SDS011;54543;50.712;6.070;2022-12-08T00:31:13;14.75;;;8.18;;
67747;SDS011;54543;50.712;6.070;2022-12-08T00:33:39;13.65;;;7.38;;
67747;SDS011;54543;50.712;6.070;2022-12-08T00:36:05;16.55;;;8.80;;
67747;SDS011;54543;50.712;6.070;2022-12-08T00:38:35;12.45;;;6.70;;
67747;SDS011;54543;50.712;6.070;2022-12-08T00:41:02;13.75;;;7.65;;
67747;SDS011;54543;50.712;6.070;2022-12-08T00:43:28;18.48;;;8.60;;
67747;SDS011;54543;50.712;6.070;2022-12-08T00:45:53;12.57;;;6.75;;
67747;SDS011;54543;50.712;6.070;2022-12-08T00:48:19;13.90;;;7.25;;
67747;SDS011;54543;50.712;6.070;2022-12-08T00:50:45;15.85;;;8.05;;
67747;SDS011;54543;50.712;6.070;2022-12-08T00:53:10;15.63;;;8.30;;
67747;SDS011;54543;50.712;6.070;2022-12-08T00:55:36;13.25;;;6.72;;
67747;SDS011;54543;50.712;6.070;2022-12-08T00:58:01;18.70;;;9.30;;
67747;SDS011;54543;50.712;6.070;2022-12-08T01:00:26;12.75;;;7.03;;
67747;SDS011;54543;50.712;6.070;2022-12-08T01:02:52;17.70;;;7.85;;
67747;SDS011;54543;50.712;6.070;2022-12-08T01:05:17;14.85;;;6.85;;
67747;SDS011;54543;50.712;6.070;2022-12-08T01:07:43;14.93;;;8.05;;
67747;SDS011;54543;50.712;6.070;2022-12-08T01:10:09;18.10;;;9.25;;
67747;SDS011;54543;50.712;6.070;2022-12-08T01:12:34;15.40;;;8.32;;
67747;SDS011;54543;50.712;6.070;2022-12-08T01:15:00;14.18;;;8.25;;
67747;SDS011;54543;50.712;6.070;2022-12-08T01:17:25;16.75;;;8.38;;
67747;SDS011;54543;50.712;6.070;2022-12-08T01:19:51;12.55;;;6.60;;
67747;SDS011;54543;50.712;6.070;2022-12-08T01:22:17;16.98;;;9.10;;
67747;SDS011;54543;50.712;6.070;2022-12-08T01:24:42;13.10;;;6.20;;
67747;SDS011;54543;50.712;6.070;2022-12-08T01:27:08;19.50;;;8.57;;
67747;SDS011;54543;50.712;6.070;2022-12-08T01:29:33;11.80;;;6.65;;
67747;SDS011;54543;50.712;6.070;2022-12-08T01:31:59;21.23;;;8.88;;
67747;SDS011;54543;50.712;6.070;2022-12-08T01:34:24;18.27;;;7.40;;
67747;SDS011;54543;50.712;6.070;2022-12-08T01:36:50;12.00;;;6.85;;
67747;SDS011;54543;50.712;6.070;2022-12-08T01:39:16;17.35;;;8.93;;
67747;SDS011;54543;50.712;6.070;2022-12-08T01:41:42;16.90;;;8.50;;
67747;SDS011;54543;50.712;6.070;2022-12-08T01:46:38;14.02;;;7.32;;
67747;SDS011;54543;50.712;6.070;2022-12-08T01:49:14;17.83;;;8.30;;
67747;SDS011;54543;50.712;6.070;2022-12-08T01:54:21;18.80;;;8.55;;
67747;SDS011;54543;50.712;6.070;2022-12-08T01:56:51;21.75;;;9.77;;
67747;SDS011;54543;50.712;6.070;2022-12-08T01:59:25;14.20;;;7.63;;
67747;SDS011;54543;50.712;6.070;2022-12-08T02:01:51;18.30;;;8.77;;
67747;SDS011;54543;50.712;6.070;2022-12-08T02:04:17;19.65;;;10.10;;
67747;SDS011;54543;50.712;6.070;2022-12-08T02:06:42;14.65;;;7.18;;
67747;SDS011;54543;50.712;6.070;2022-12-08T02:09:10;13.93;;;6.75;;
67747;SDS011;54543;50.712;6.070;2022-12-08T02:11:36;16.35;;;7.50;;
67747;SDS011;54543;50.712;6.070;2022-12-08T02:14:02;17.27;;;8.02;;
67747;SDS011;54543;50.712;6.070;2022-12-08T02:16:48;19.33;;;8.63;;
67747;SDS011;54543;50.712;6.070;2022-12-08T02:22:00;14.43;;;7.15;;
67747;SDS011;54543;50.712;6.070;2022-12-08T02:32:56;15.57;;;7.68;;
67747;SDS011;54543;50.712;6.070;2022-12-08T02:44:21;14.80;;;6.63;;
67747;SDS011;54543;50.712;6.070;2022-12-08T02:47:02;12.05;;;5.85;;
67747;SDS011;54543;50.712;6.070;2022-12-08T02:49:35;10.48;;;5.60;;
67747;SDS011;54543;50.712;6.070;2022-12-08T02:52:34;15.93;;;6.93;;
67747;SDS011;54543;50.712;6.070;2022-12-08T02:54:52;13.50;;;6.28;;
67747;SDS011;54543;50.712;6.070;2022-12-08T03:00:21;13.65;;;6.35;;
67747;SDS011;54543;50.712;6.070;2022-12-08T03:02:58;18.55;;;8.90;;
67747;SDS011;54543;50.712;6.070;2022-12-08T03:08:14;21.25;;;8.88;;
67747;SDS011;54543;50.712;6.070;2022-12-08T03:10:46;20.98;;;8.95;;
67747;SDS011;54543;50.712;6.070;2022-12-08T03:13:51;16.23;;;7.90;;
67747;SDS011;54543;50.712;6.070;2022-12-08T03:16:11;18.33;;;7.20;;
67747;SDS011;54543;50.712;6.070;2022-12-08T03:18:41;16.35;;;7.93;;
67747;SDS011;54543;50.712;6.070;2022-12-08T03:21:12;23.20;;;9.98;;
67747;SDS011;54543;50.712;6.070;2022-12-08T03:23:41;16.95;;;8.73;;
67747;SDS011;54543;50.712;6.070;2022-12-08T03:26:24;16.20;;;8.02;;
67747;SDS011;54543;50.712;6.070;2022-12-08T03:28:58;30.92;;;12.55;;
67747;SDS011;54543;50.712;6.070;2022-12-08T03:31:24;19.73;;;8.88;;
67747;SDS011;54543;50.712;6.070;2022-12-08T03:33:53;22.65;;;10.32;;
67747;SDS011;54543;50.712;6.070;2022-12-08T03:36:20;22.33;;;9.88;;
67747;SDS011;54543;50.712;6.070;2022-12-08T03:38:48;25.05;;;10.77;;
67747;SDS011;54543;50.712;6.070;2022-12-08T03:41:17;24.02;;;11.05;;
67747;SDS011;54543;50.712;6.070;2022-12-08T03:44:01;19.65;;;8.95;;
67747;SDS011;54543;50.712;6.070;2022-12-08T03:46:27;18.33;;;7.78;;
67747;SDS011;54543;50.712;6.070;2022-12-08T03:48:53;22.85;;;10.38;;
67747;SDS011;54543;50.712;6.070;2022-12-08T03:51:19;21.98;;;10.02;;
67747;SDS011;54543;50.712;6.070;2022-12-08T03:53:45;18.35;;;8.57;;
67747;SDS011;54543;50.712;6.070;2022-12-08T03:56:22;27.48;;;12.48;;
67747;SDS011;54543;50.712;6.070;2022-12-08T03:58:48;17.20;;;8.57;;
67747;SDS011;54543;50.712;6.070;2022-12-08T04:01:13;18.00;;;8.65;;
67747;SDS011;54543;50.712;6.070;2022-12-08T04:03:39;21.00;;;9.05;;
67747;SDS011;54543;50.712;6.070;2022-12-08T04:06:05;17.80;;;8.40;;
67747;SDS011;54543;50.712;6.070;2022-12-08T04:08:31;19.70;;;8.20;;
67747;SDS011;54543;50.712;6.070;2022-12-08T04:10:57;18.40;;;8.73;;
67747;SDS011;54543;50.712;6.070;2022-12-08T04:13:22;23.00;;;9.65;;
67747;SDS011;54543;50.712;6.070;2022-12-08T04:15:48;18.00;;;8.38;;
67747;SDS011;54543;50.712;6.070;2022-12-08T04:18:14;20.52;;;8.15;;
67747;SDS011;54543;50.712;6.070;2022-12-08T04:20:40;18.35;;;9.82;;
67747;SDS011;54543;50.712;6.070;2022-12-08T04:23:07;20.33;;;9.20;;
67747;SDS011;54543;50.712;6.070;2022-12-08T04:25:33;27.55;;;11.77;;
67747;SDS011;54543;50.712;6.070;2022-12-08T04:27:59;21.15;;;9.48;;
67747;SDS011;54543;50.712;6.070;2022-12-08T04:30:25;24.77;;;10.60;;
67747;SDS011;54543;50.712;6.070;2022-12-08T04:32:50;27.05;;;11.70;;
67747;SDS011;54543;50.712;6.070;2022-12-08T04:35:16;22.13;;;10.55;;
67747;SDS011;54543;50.712;6.070;2022-12-08T04:37:42;33.97;;;12.88;;
67747;SDS011;54543;50.712;6.070;2022-12-08T04:40:08;25.42;;;11.20;;
67747;SDS011;54543;50.712;6.070;2022-12-08T04:42:35;28.02;;;11.77;;
67747;SDS011;54543;50.712;6.070;2022-12-08T04:45:01;24.83;;;11.25;;
67747;SDS011;54543;50.712;6.070;2022-12-08T04:47:27;27.55;;;12.10;;
67747;SDS011;54543;50.712;6.070;2022-12-08T04:49:53;19.95;;;9.15;;
67747;SDS011;54543;50.712;6.070;2022-12-08T04:52:18;20.10;;;10.38;;
67747;SDS011;54543;50.712;6.070;2022-12-08T04:54:44;19.98;;;9.85;;
67747;SDS011;54543;50.712;6.070;2022-12-08T04:57:09;20.45;;;9.95;;
67747;SDS011;54543;50.712;6.070;2022-12-08T04:59:35;21.80;;;9.23;;
67747;SDS011;54543;50.712;6.070;2022-12-08T05:02:00;23.80;;;10.05;;
67747;SDS011;54543;50.712;6.070;2022-12-08T05:04:26;21.27;;;9.65;;
67747;SDS011;54543;50.712;6.070;2022-12-08T05:06:52;19.65;;;9.48;;
67747;SDS011;54543;50.712;6.070;2022-12-08T05:09:17;21.35;;;10.02;;
67747;SDS011;54543;50.712;6.070;2022-12-08T05:11:43;26.17;;;9.38;;
67747;SDS011;54543;50.712;6.070;2022-12-08T05:14:12;24.33;;;10.52;;
67747;SDS011;54543;50.712;6.070;2022-12-08T05:16:39;26.98;;;12.38;;
67747;SDS011;54543;50.712;6.070;2022-12-08T05:19:05;22.38;;;9.82;;
67747;SDS011;54543;50.712;6.070;2022-12-08T05:21:30;29.55;;;13.00;;
67747;SDS011;54543;50.712;6.070;2022-12-08T05:23:56;24.08;;;10.43;;
67747;SDS011;54543;50.712;6.070;2022-12-08T05:26:22;23.63;;;11.13;;
67747;SDS011;54543;50.712;6.070;2022-12-08T05:28:47;27.02;;;11.18;;
67747;SDS011;54543;50.712;6.070;2022-12-08T05:31:13;19.70;;;8.93;;
67747;SDS011;54543;50.712;6.070;2022-12-08T05:33:40;17.25;;;8.40;;
67747;SDS011;54543;50.712;6.070;2022-12-08T05:36:06;17.42;;;8.73;;
67747;SDS011;54543;50.712;6.070;2022-12-08T05:38:33;20.63;;;10.15;;
67747;SDS011;54543;50.712;6.070;2022-12-08T05:40:58;22.85;;;9.50;;
67747;SDS011;54543;50.712;6.070;2022-12-08T05:43:24;29.38;;;12.85;;
67747;SDS011;54543;50.712;6.070;2022-12-08T05:45:51;30.02;;;13.23;;
67747;SDS011;54543;50.712;6.070;2022-12-08T05:48:16;20.75;;;9.68;;
67747;SDS011;54543;50.712;6.070;2022-12-08T05:50:46;28.88;;;12.18;;
67747;SDS011;54543;50.712;6.070;2022-12-08T05:53:13;27.00;;;13.60;;
67747;SDS011;54543;50.712;6.070;2022-12-08T05:55:39;21.73;;;10.45;;
67747;SDS011;54543;50.712;6.070;2022-12-08T05:58:05;32.70;;;13.25;;
67747;SDS011;54543;50.712;6.070;2022-12-08T06:00:31;26.27;;;11.15;;
67747;SDS011;54543;50.712;6.070;2022-12-08T06:02:59;23.02;;;10.57;;
67747;SDS011;54543;50.712;6.070;2022-12-08T06:05:25;18.65;;;9.27;;
67747;SDS011;54543;50.712;6.070;2022-12-08T06:07:50;24.00;;;10.02;;
67747;SDS011;54543;50.712;6.070;2022-12-08T06:10:16;27.90;;;10.88;;
67747;SDS011;54543;50.712;6.070;2022-12-08T06:12:41;20.42;;;10.40;;
67747;SDS011;54543;50.712;6.070;2022-12-08T06:15:07;20.17;;;9.55;;
67747;SDS011;54543;50.712;6.070;2022-12-08T06:17:33;21.08;;;8.93;;
67747;SDS011;54543;50.712;6.070;2022-12-08T06:19:59;21.88;;;9.80;;
67747;SDS011;54543;50.712;6.070;2022-12-08T06:22:24;27.52;;;12.32;;
67747;SDS011;54543;50.712;6.070;2022-12-08T06:24:50;29.17;;;12.27;;
67747;SDS011;54543;50.712;6.070;2022-12-08T06:27:15;23.08;;;9.80;;
67747;SDS011;54543;50.712;6.070;2022-12-08T06:29:41;19.80;;;9.45;;
67747;SDS011;54543;50.712;6.070;2022-12-08T06:32:06;25.80;;;11.55;;
67747;SDS011;54543;50.712;6.070;2022-12-08T06:34:32;23.60;;;11.00;;
67747;SDS011;54543;50.712;6.070;2022-12-08T06:36:57;17.98;;;8.98;;
67747;SDS011;54543;50.712;6.070;2022-12-08T06:39:22;21.55;;;9.80;;
67747;SDS011;54543;50.712;6.070;2022-12-08T06:41:48;21.63;;;9.48;;
67747;SDS011;54543;50.712;6.070;2022-12-08T06:44:32;20.08;;;10.00;;
67747;SDS011;54543;50.712;6.070;2022-12-08T06:46:57;21.65;;;10.77;;
67747;SDS011;54543;50.712;6.070;2022-12-08T06:49:23;19.85;;;8.90;;
67747;SDS011;54543;50.712;6.070;2022-12-08T06:51:48;20.23;;;9.82;;
67747;SDS011;54543;50.712;6.070;2022-12-08T06:54:14;22.92;;;10.50;;
67747;SDS011;54543;50.712;6.070;2022-12-08T06:56:39;21.95;;;11.32;;
67747;SDS011;54543;50.712;6.070;2022-12-08T06:59:05;20.55;;;10.38;;
67747;SDS011;54543;50.712;6.070;2022-12-08T07:01:30;23.25;;;9.50;;
67747;SDS011;54543;50.712;6.070;2022-12-08T07:03:56;19.23;;;9.15;;
67747;SDS011;54543;50.712;6.070;2022-12-08T07:06:22;19.65;;;9.68;;
67747;SDS011;54543;50.712;6.070;2022-12-08T07:08:49;17.33;;;8.88;;
67747;SDS011;54543;50.712;6.070;2022-12-08T07:11:14;21.48;;;11.00;;
67747;SDS011;54543;50.712;6.070;2022-12-08T07:13:40;25.73;;;12.43;;
67747;SDS011;54543;50.712;6.070;2022-12-08T07:16:09;16.50;;;8.80;;
67747;SDS011;54543;50.712;6.070;2022-12-08T07:18:36;26.73;;;11.85;;
67747;SDS011;54543;50.712;6.070;2022-12-08T07:21:03;21.08;;;11.32;;
67747;SDS011;54543;50.712;6.070;2022-12-08T07:23:30;22.05;;;10.05;;
67747;SDS011;54543;50.712;6.070;2022-12-08T07:25:58;17.30;;;8.65;;
67747;SDS011;54543;50.712;6.070;2022-12-08T07:28:25;20.98;;;10.18;;
67747;SDS011;54543;50.712;6.070;2022-12-08T07:30:50;12.90;;;7.40;;
67747;SDS011;54543;50.712;6.070;2022-12-08T07:33:16;17.70;;;8.88;;
67747;SDS011;54543;50.712;6.070;2022-12-08T07:35:41;21.42;;;11.02;;
67747;SDS011;54543;50.712;6.070;2022-12-08T07:38:09;17.65;;;8.50;;
67747;SDS011;54543;50.712;6.070;2022-12-08T07:40:35;18.67;;;9.80;;
67747;SDS011;54543;50.712;6.070;2022-12-08T07:43:02;28.05;;;13.68;;
67747;SDS011;54543;50.712;6.070;2022-12-08T07:45:27;21.38;;;10.38;;
67747;SDS011;54543;50.712;6.070;2022-12-08T07:47:53;18.02;;;8.88;;
67747;SDS011;54543;50.712;6.070;2022-12-08T07:50:18;18.35;;;8.57;;
67747;SDS011;54543;50.712;6.070;2022-12-08T07:52:43;20.75;;;9.15;;
67747;SDS011;54543;50.712;6.070;2022-12-08T07:55:09;21.88;;;10.73;;
67747;SDS011;54543;50.712;6.070;2022-12-08T07:57:34;16.40;;;8.43;;
67747;SDS011;54543;50.712;6.070;2022-12-08T08:00:00;24.67;;;12.68;;
67747;SDS011;54543;50.712;6.070;2022-12-08T08:02:26;26.15;;;12.85;;
67747;SDS011;54543;50.712;6.070;2022-12-08T08:04:51;36.72;;;14.93;;
67747;SDS011;54543;50.712;6.070;2022-12-08T08:07:17;25.45;;;11.35;;
67747;SDS011;54543;50.712;6.070;2022-12-08T08:09:43;21.98;;;10.60;;
67747;SDS011;54543;50.712;6.070;2022-12-08T08:12:09;19.52;;;10.38;;
67747;SDS011;54543;50.712;6.070;2022-12-08T08:14:35;29.38;;;14.00;;
67747;SDS011;54543;50.712;6.070;2022-12-08T08:17:00;20.13;;;11.40;;
67747;SDS011;54543;50.712;6.070;2022-12-08T08:19:26;23.85;;;11.05;;
67747;SDS011;54543;50.712;6.070;2022-12-08T08:21:51;18.35;;;8.57;;
67747;SDS011;54543;50.712;6.070;2022-12-08T08:24:17;28.27;;;13.98;;
67747;SDS011;54543;50.712;6.070;2022-12-08T08:26:43;24.65;;;12.65;;
67747;SDS011;54543;50.712;6.070;2022-12-08T08:29:08;24.75;;;12.63;;
67747;SDS011;54543;50.712;6.070;2022-12-08T08:31:34;19.92;;;10.65;;
67747;SDS011;54543;50.712;6.070;2022-12-08T08:33:59;27.02;;;13.05;;
67747;SDS011;54543;50.712;6.070;2022-12-08T08:36:30;19.65;;;9.98;;
67747;SDS011;54543;50.712;6.070;2022-12-08T08:38:56;14.40;;;8.20;;
67747;SDS011;54543;50.712;6.070;2022-12-08T08:41:21;18.33;;;8.75;;
67747;SDS011;54543;50.712;6.070;2022-12-08T08:43:47;18.63;;;8.95;;
67747;SDS011;54543;50.712;6.070;2022-12-08T08:46:12;14.68;;;8.52;;
67747;SDS011;54543;50.712;6.070;2022-12-08T08:48:38;21.75;;;10.57;;
67747;SDS011;54543;50.712;6.070;2022-12-08T08:51:07;15.30;;;8.35;;
67747;SDS011;54543;50.712;6.070;2022-12-08T08:53:34;20.02;;;8.80;;
67747;SDS011;54543;50.712;6.070;2022-12-08T08:56:00;16.85;;;8.70;;
67747;SDS011;54543;50.712;6.070;2022-12-08T08:58:29;16.55;;;8.20;;
67747;SDS011;54543;50.712;6.070;2022-12-08T09:00:55;16.83;;;9.60;;
67747;SDS011;54543;50.712;6.070;2022-12-08T09:03:20;17.02;;;8.65;;
67747;SDS011;54543;50.712;6.070;2022-12-08T09:05:46;15.35;;;8.20;;
67747;SDS011;54543;50.712;6.070;2022-12-08T09:08:12;17.98;;;9.38;;
67747;SDS011;54543;50.712;6.070;2022-12-08T09:10:37;19.08;;;9.70;;
67747;SDS011;54543;50.712;6.070;2022-12-08T09:13:03;17.40;;;8.77;;
67747;SDS011;54543;50.712;6.070;2022-12-08T09:15:28;17.67;;;8.57;;
67747;SDS011;54543;50.712;6.070;2022-12-08T09:17:54;15.82;;;8.43;;
67747;SDS011;54543;50.712;6.070;2022-12-08T09:20:20;15.20;;;8.15;;
67747;SDS011;54543;50.712;6.070;2022-12-08T09:22:45;17.30;;;7.95;;
67747;SDS011;54543;50.712;6.070;2022-12-08T09:25:11;15.70;;;8.23;;
67747;SDS011;54543;50.712;6.070;2022-12-08T09:27:36;14.15;;;7.75;;
67747;SDS011;54543;50.712;6.070;2022-12-08T09:30:02;14.50;;;7.20;;
67747;SDS011;54543;50.712;6.070;2022-12-08T09:32:28;16.08;;;7.90;;
67747;SDS011;54543;50.712;6.070;2022-12-08T09:34:53;22.23;;;8.90;;
67747;SDS011;54543;50.712;6.070;2022-12-08T09:37:19;16.33;;;8.45;;
67747;SDS011;54543;50.712;6.070;2022-12-08T09:39:45;12.80;;;7.20;;
67747;SDS011;54543;50.712;6.070;2022-12-08T09:42:10;14.43;;;7.57;;
67747;SDS011;54543;50.712;6.070;2022-12-08T09:47:23;17.35;;;8.25;;
67747;SDS011;54543;50.712;6.070;2022-12-08T09:49:58;18.10;;;8.90;;
67747;SDS011;54543;50.712;6.070;2022-12-08T09:52:37;16.38;;;7.78;;
67747;SDS011;54543;50.712;6.070;2022-12-08T09:55:12;20.27;;;10.45;;
67747;SDS011;54543;50.712;6.070;2022-12-08T09:57:43;19.13;;;8.98;;
67747;SDS011;54543;50.712;6.070;2022-12-08T10:00:15;18.98;;;9.05;;
67747;SDS011;54543;50.712;6.070;2022-12-08T10:02:42;21.33;;;9.38;;
67747;SDS011;54543;50.712;6.070;2022-12-08T10:05:12;18.05;;;9.75;;
67747;SDS011;54543;50.712;6.070;2022-12-08T10:07:52;16.58;;;8.38;;
67747;SDS011;54543;50.712;6.070;2022-12-08T10:10:41;18.45;;;8.15;;
67747;SDS011;54543;50.712;6.070;2022-12-08T10:13:39;15.98;;;8.07;;
67747;SDS011;54543;50.712;6.070;2022-12-08T10:16:22;20.60;;;10.63;;
67747;SDS011;54543;50.712;6.070;2022-12-08T10:19:10;14.93;;;6.90;;
67747;SDS011;54543;50.712;6.070;2022-12-08T10:21:42;30.35;;;12.30;;
67747;SDS011;54543;50.712;6.070;2022-12-08T10:24:15;35.55;;;15.07;;
67747;SDS011;54543;50.712;6.070;2022-12-08T10:26:47;21.50;;;10.70;;
67747;SDS011;54543;50.712;6.070;2022-12-08T10:29:13;17.02;;;8.40;;
67747;SDS011;54543;50.712;6.070;2022-12-08T10:31:39;18.73;;;8.02;;
67747;SDS011;54543;50.712;6.070;2022-12-08T10:34:16;16.05;;;7.70;;
67747;SDS011;54543;50.712;6.070;2022-12-08T10:36:51;14.30;;;7.30;;
67747;SDS011;54543;50.712;6.070;2022-12-08T10:39:33;15.93;;;7.68;;
67747;SDS011;54543;50.712;6.070;2022-12-08T10:44:46;14.35;;;6.78;;
67747;SDS011;54543;50.712;6.070;2022-12-08T10:47:34;13.32;;;6.85;;
67747;SDS011;54543;50.712;6.070;2022-12-08T10:52:55;16.77;;;7.45;;
67747;SDS011;54543;50.712;6.070;2022-12-08T10:55:22;18.52;;;9.13;;
67747;SDS011;54543;50.712;6.070;2022-12-08T10:57:48;17.63;;;8.23;;
67747;SDS011;54543;50.712;6.070;2022-12-08T11:00:15;14.15;;;7.82;;
67747;SDS011;54543;50.712;6.070;2022-12-08T11:02:55;23.05;;;10.18;;
67747;SDS011;54543;50.712;6.070;2022-12-08T11:05:25;19.90;;;8.85;;
67747;SDS011;54543;50.712;6.070;2022-12-08T11:07:53;19.20;;;9.77;;
67747;SDS011;54543;50.712;6.070;2022-12-08T11:10:20;15.63;;;6.93;;
67747;SDS011;54543;50.712;6.070;2022-12-08T11:13:03;15.32;;;7.85;;
67747;SDS011;54543;50.712;6.070;2022-12-08T11:15:34;14.90;;;6.70;;
67747;SDS011;54543;50.712;6.070;2022-12-08T11:18:06;12.25;;;6.35;;
67747;SDS011;54543;50.712;6.070;2022-12-08T11:20:39;10.15;;;5.93;;
67747;SDS011;54543;50.712;6.070;2022-12-08T11:23:17;11.35;;;5.63;;
67747;SDS011;54543;50.712;6.070;2022-12-08T11:25:44;16.20;;;8.30;;
67747;SDS011;54543;50.712;6.070;2022-12-08T11:28:10;16.98;;;6.95;;
67747;SDS011;54543;50.712;6.070;2022-12-08T11:30:37;19.05;;;7.70;;
67747;SDS011;54543;50.712;6.070;2022-12-08T11:33:13;16.33;;;8.80;;
67747;SDS011;54543;50.712;6.070;2022-12-08T11:35:44;14.35;;;7.10;;
67747;SDS011;54543;50.712;6.070;2022-12-08T11:38:14;18.30;;;8.07;;
67747;SDS011;54543;50.712;6.070;2022-12-08T11:40:47;17.77;;;9.00;;
67747;SDS011;54543;50.712;6.070;2022-12-08T11:43:16;17.67;;;8.32;;
67747;SDS011;54543;50.712;6.070;2022-12-08T11:45:48;13.55;;;7.15;;
67747;SDS011;54543;50.712;6.070;2022-12-08T11:48:17;14.25;;;7.75;;
67747;SDS011;54543;50.712;6.070;2022-12-08T11:50:50;12.75;;;5.78;;
67747;SDS011;54543;50.712;6.070;2022-12-08T11:53:26;14.65;;;7.65;;
67747;SDS011;54543;50.712;6.070;2022-12-08T11:55:58;14.77;;;6.97;;
67747;SDS011;54543;50.712;6.070;2022-12-08T11:58:40;16.15;;;9.95;;
67747;SDS011;54543;50.712;6.070;2022-12-08T12:01:15;13.93;;;8.45;;
67747;SDS011;54543;50.712;6.070;2022-12-08T12:03:46;14.85;;;8.05;;
67747;SDS011;54543;50.712;6.070;2022-12-08T12:09:20;17.98;;;12.50;;
67747;SDS011;54543;50.712;6.070;2022-12-08T12:14:45;21.33;;;15.25;;
67747;SDS011;54543;50.712;6.070;2022-12-08T12:23:06;13.65;;;7.95;;
67747;SDS011;54543;50.712;6.070;2022-12-08T12:25:36;14.68;;;7.43;;
67747;SDS011;54543;50.712;6.070;2022-12-08T12:28:10;15.13;;;7.65;;
67747;SDS011;54543;50.712;6.070;2022-12-08T12:30:53;15.60;;;7.78;;
67747;SDS011;54543;50.712;6.070;2022-12-08T12:33:24;12.88;;;7.28;;
67747;SDS011;54543;50.712;6.070;2022-12-08T12:35:50;13.27;;;6.95;;
67747;SDS011;54543;50.712;6.070;2022-12-08T12:41:05;12.57;;;5.53;;
67747;SDS011;54543;50.712;6.070;2022-12-08T12:43:33;12.68;;;7.18;;
67747;SDS011;54543;50.712;6.070;2022-12-08T12:48:48;10.38;;;5.72;;
67747;SDS011;54543;50.712;6.070;2022-12-08T12:54:22;16.30;;;7.10;;
67747;SDS011;54543;50.712;6.070;2022-12-08T12:59:35;12.90;;;7.30;;
67747;SDS011;54543;50.712;6.070;2022-12-08T13:02:10;16.15;;;6.07;;
67747;SDS011;54543;50.712;6.070;2022-12-08T13:08:19;9.57;;;5.20;;
67747;SDS011;54543;50.712;6.070;2022-12-08T13:10:32;11.32;;;5.65;;
67747;SDS011;54543;50.712;6.070;2022-12-08T13:15:40;10.18;;;5.20;;
67747;SDS011;54543;50.712;6.070;2022-12-08T13:18:35;11.45;;;6.10;;
67747;SDS011;54543;50.712;6.070;2022-12-08T13:31:37;10.07;;;4.90;;
67747;SDS011;54543;50.712;6.070;2022-12-08T13:34:05;12.73;;;6.25;;
67747;SDS011;54543;50.712;6.070;2022-12-08T13:42:53;10.80;;;6.20;;
67747;SDS011;54543;50.712;6.070;2022-12-08T13:45:29;11.18;;;6.28;;
67747;SDS011;54543;50.712;6.070;2022-12-08T13:48:03;9.77;;;5.97;;
67747;SDS011;54543;50.712;6.070;2022-12-08T13:50:38;9.73;;;5.10;;
67747;SDS011;54543;50.712;6.070;2022-12-08T13:53:15;9.82;;;5.43;;
67747;SDS011;54543;50.712;6.070;2022-12-08T13:56:17;9.38;;;4.78;;
67747;SDS011;54543;50.712;6.070;2022-12-08T13:58:36;8.60;;;5.00;;
67747;SDS011;54543;50.712;6.070;2022-12-08T14:01:21;14.48;;;5.70;;
67747;SDS011;54543;50.712;6.070;2022-12-08T14:06:15;12.15;;;6.38;;
67747;SDS011;54543;50.712;6.070;2022-12-08T14:08:42;11.63;;;5.32;;
67747;SDS011;54543;50.712;6.070;2022-12-08T14:11:14;12.52;;;6.32;;
67747;SDS011;54543;50.712;6.070;2022-12-08T14:16:28;11.45;;;5.43;;
67747;SDS011;54543;50.712;6.070;2022-12-08T14:19:09;9.63;;;5.93;;
67747;SDS011;54543;50.712;6.070;2022-12-08T14:21:44;10.45;;;5.03;;
67747;SDS011;54543;50.712;6.070;2022-12-08T14:24:11;9.10;;;4.82;;
67747;SDS011;54543;50.712;6.070;2022-12-08T14:26:36;6.55;;;3.80;;
67747;SDS011;54543;50.712;6.070;2022-12-08T14:29:02;5.78;;;3.75;;
67747;SDS011;54543;50.712;6.070;2022-12-08T14:31:31;7.32;;;4.20;;
67747;SDS011;54543;50.712;6.070;2022-12-08T14:33:57;7.32;;;3.53;;
67747;SDS011;54543;50.712;6.070;2022-12-08T14:36:22;9.15;;;4.22;;
67747;SDS011;54543;50.712;6.070;2022-12-08T14:38:54;9.55;;;4.63;;
67747;SDS011;54543;50.712;6.070;2022-12-08T14:41:24;9.73;;;5.28;;
67747;SDS011;54543;50.712;6.070;2022-12-08T14:43:58;6.80;;;3.75;;
67747;SDS011;54543;50.712;6.070;2022-12-08T14:46:25;6.72;;;4.35;;
67747;SDS011;54543;50.712;6.070;2022-12-08T14:48:51;9.98;;;5.10;;
67747;SDS011;54543;50.712;6.070;2022-12-08T14:53:52;12.02;;;5.45;;
67747;SDS011;54543;50.712;6.070;2022-12-08T14:59:21;10.88;;;5.30;;
67747;SDS011;54543;50.712;6.070;2022-12-08T15:04:44;10.38;;;5.07;;
67747;SDS011;54543;50.712;6.070;2022-12-08T15:07:15;10.10;;;4.75;;
67747;SDS011;54543;50.712;6.070;2022-12-08T15:09:43;9.55;;;5.13;;
67747;SDS011;54543;50.712;6.070;2022-12-08T15:14:37;8.57;;;4.82;;
67747;SDS011;54543;50.712;6.070;2022-12-08T15:19:58;8.38;;;4.72;;
67747;SDS011;54543;50.712;6.070;2022-12-08T15:22:24;6.53;;;4.45;;
67747;SDS011;54543;50.712;6.070;2022-12-08T15:24:53;6.20;;;4.10;;
67747;SDS011;54543;50.712;6.070;2022-12-08T15:27:23;6.47;;;4.00;;
67747;SDS011;54543;50.712;6.070;2022-12-08T15:29:49;7.00;;;3.90;;
67747;SDS011;54543;50.712;6.070;2022-12-08T15:32:16;9.02;;;4.03;;
67747;SDS011;54543;50.712;6.070;2022-12-08T15:34:44;8.73;;;4.82;;
67747;SDS011;54543;50.712;6.070;2022-12-08T15:37:23;8.45;;;4.55;;
67747;SDS011;54543;50.712;6.070;2022-12-08T15:39:50;8.25;;;4.68;;
67747;SDS011;54543;50.712;6.070;2022-12-08T15:42:16;8.90;;;4.45;;
67747;SDS011;54543;50.712;6.070;2022-12-08T15:44:42;7.75;;;3.90;;
67747;SDS011;54543;50.712;6.070;2022-12-08T15:47:14;7.38;;;4.82;;
67747;SDS011;54543;50.712;6.070;2022-12-08T15:49:45;7.55;;;4.20;;
67747;SDS011;54543;50.712;6.070;2022-12-08T15:52:14;7.53;;;3.92;;
67747;SDS011;54543;50.712;6.070;2022-12-08T15:54:42;13.25;;;7.03;;
67747;SDS011;54543;50.712;6.070;2022-12-08T15:57:29;28.30;;;14.95;;
67747;SDS011;54543;50.712;6.070;2022-12-08T15:59:54;21.65;;;10.95;;
67747;SDS011;54543;50.712;6.070;2022-12-08T16:02:20;16.10;;;9.02;;
67747;SDS011;54543;50.712;6.070;2022-12-08T16:04:46;14.45;;;8.18;;
67747;SDS011;54543;50.712;6.070;2022-12-08T16:09:46;12.10;;;6.30;;
67747;SDS011;54543;50.712;6.070;2022-12-08T16:12:16;9.65;;;5.15;;
67747;SDS011;54543;50.712;6.070;2022-12-08T16:15:02;12.18;;;5.82;;
67747;SDS011;54543;50.712;6.070;2022-12-08T16:17:28;8.77;;;4.53;;
67747;SDS011;54543;50.712;6.070;2022-12-08T16:19:55;9.27;;;4.82;;
67747;SDS011;54543;50.712;6.070;2022-12-08T16:22:22;9.43;;;4.57;;
67747;SDS011;54543;50.712;6.070;2022-12-08T16:24:49;7.70;;;4.07;;
67747;SDS011;54543;50.712;6.070;2022-12-08T16:27:19;8.60;;;4.53;;
67747;SDS011;54543;50.712;6.070;2022-12-08T16:29:45;7.47;;;4.32;;